Time;durP1;ratioP1;P1;durP2;ratioP2;P2;SDS_P1;SDS_P2;PMS_P1;PMS_P2;Temp;Humidity;BMP_temperature;BMP_pressure;BME280_temperature;BME280_humidity;BME280_pressure;Samples;Min_cycle;Max_cycle;Signal;HPM_P1;HPM_P2
2022/07/02 00:01:56;;;;;;;;;;;;;;;14.55;72.58;102112.16;5089514;28;19920;-55
2022/07/02 00:04:25;;;;;;;;;;;;;;;14.55;72.56;102117.53;5086743;28;19919;-57
2022/07/02 00:06:50;;;;;;;;;;;;;;;14.53;72.77;102118.69;5089452;28;20489;-53
2022/07/02 00:09:15;;;;;;;;;;;;;;;14.51;72.79;102113.50;5090519;28;20112;-53
2022/07/02 00:11:41;;;;;;;;;;;;;;;14.49;72.92;102125.38;5088031;28;19924;-55
2022/07/02 00:14:06;;;;;;;;;;;;;;;14.48;72.99;102113.00;5090599;28;19965;-55
2022/07/02 00:16:32;;;;;;;;;;;;;;;14.47;72.65;102117.50;5085997;28;19953;-55
2022/07/02 00:18:57;;;;;;;;;;;;;;;14.45;72.68;102111.47;5089624;28;19926;-53
2022/07/02 00:21:23;;;;;;;;;;;;;;;14.46;72.71;102120.34;5089265;28;19912;-56
2022/07/02 00:23:48;;;;;;;;;;;;;;;14.45;72.58;102119.47;5088368;28;19986;-56
2022/07/02 00:26:17;;;;;;;;;;;;;;;14.45;72.61;102124.00;5089357;28;19919;-56
2022/07/02 00:31:47;;;;;;;;;;;;;;;14.43;72.66;102124.16;5087037;28;19927;-56
2022/07/02 00:34:13;;;;;;;;;;;;;;;14.43;72.65;102118.81;5089290;28;20031;-55
2022/07/02 00:36:39;;;;;;;;;;;;;;;14.41;72.91;102123.47;5087677;28;20006;-54
2022/07/02 00:39:04;;;;;;;;;;;;;;;14.39;73.00;102116.63;5090327;28;19923;-56
2022/07/02 00:41:29;;;;;;;;;;;;;;;14.39;72.88;102120.13;5089299;28;19921;-56
2022/07/02 00:43:55;;;;;;;;;;;;;;;14.40;72.62;102119.13;5088414;28;19957;-55
2022/07/02 00:46:21;;;;;;;;;;;;;;;14.38;72.97;102129.13;5086326;28;20324;-55
2022/07/02 00:48:46;;;;;;;;;;;;;;;14.37;73.01;102116.78;5090726;28;19961;-54
2022/07/02 00:51:11;;;;;;;;;;;;;;;14.35;72.75;102120.63;5079623;28;19920;-56
2022/07/02 00:53:36;;;;;;;;;;;;;;;14.33;73.08;102122.63;5084690;28;19930;-55
2022/07/02 00:56:02;;;;;;;;;;;;;;;14.30;72.75;102106.91;5079898;28;19958;-54
2022/07/02 00:58:28;;;;;;;;;;;;;;;14.32;72.76;102111.09;5084463;28;20406;-56
2022/07/02 01:00:54;;;;;;;;;;;;;;;14.32;72.79;102102.25;5079824;28;19920;-55
2022/07/02 01:03:20;;;;;;;;;;;;;;;14.32;73.06;102105.75;5081941;28;19922;-53
2022/07/02 01:05:47;;;;;;;;;;;;;;;14.33;72.72;102107.41;5082196;28;19916;-56
2022/07/02 01:11:00;;;;;;;;;;;;;;;14.29;72.78;102106.09;5082968;28;19926;-53
2022/07/02 01:13:25;;;;;;;;;;;;;;;14.28;72.71;102101.72;5081980;28;19916;-55
2022/07/02 01:15:50;;;;;;;;;;;;;;;14.26;72.91;102101.06;5078773;28;19912;-55
2022/07/02 01:18:17;;;;;;;;;;;;;;;14.23;73.08;102098.72;5084072;28;20337;-54
2022/07/02 01:20:43;;;;;;;;;;;;;;;14.22;72.88;102097.88;5080600;28;19958;-56
2022/07/02 01:23:08;;;;;;;;;;;;;;;14.20;72.79;102101.72;5084740;28;19955;-55
2022/07/02 01:25:33;;;;;;;;;;;;;;;14.16;73.02;102101.19;5082348;28;20291;-55
2022/07/02 01:27:58;;;;;;;;;;;;;;;14.11;73.16;102105.34;5082481;28;19920;-53
2022/07/02 01:30:23;;;;;;;;;;;;;;;14.06;72.84;102107.69;5080529;28;19999;-54
2022/07/02 01:32:49;;;;;;;;;;;;;;;14.00;72.76;102103.00;5082393;28;19923;-56
2022/07/02 01:35:14;;;;;;;;;;;;;;;13.97;72.73;102101.50;5081601;28;19923;-55
2022/07/02 01:37:39;;;;;;;;;;;;;;;13.95;73.18;102098.16;5083435;28;20010;-56
2022/07/02 01:40:05;;;;;;;;;;;;;;;13.94;73.27;102102.66;5081105;28;20370;-56
2022/07/02 01:42:30;;;;;;;;;;;;;;;13.95;73.43;102104.31;5082898;28;19912;-53
2022/07/02 01:44:56;;;;;;;;;;;;;;;13.94;73.34;102109.81;5081590;28;19920;-54
2022/07/02 01:47:21;;;;;;;;;;;;;;;13.95;73.40;102107.00;5081555;28;19920;-54
2022/07/02 01:49:47;;;;;;;;;;;;;;;13.96;73.69;102105.16;5083414;28;19923;-55
2022/07/02 01:52:13;;;;;;;;;;;;;;;13.95;73.68;102101.66;5081939;28;19924;-55
2022/07/02 01:54:38;;;;;;;;;;;;;;;13.98;73.34;102107.66;5082568;28;19919;-57
2022/07/02 01:57:03;;;;;;;;;;;;;;;14.00;73.43;102111.84;5079977;28;19912;-56
2022/07/02 01:59:29;;;;;;;;;;;;;;;14.01;73.40;102104.66;5081520;28;19912;-54
2022/07/02 02:01:54;;;;;;;;;;;;;;;14.01;73.52;102104.66;5078787;28;21640;-56
2022/07/02 02:04:19;;;;;;;;;;;;;;;14.02;73.36;102101.84;5083224;28;20287;-55
2022/07/02 02:06:45;;;;;;;;;;;;;;;14.03;73.59;102102.66;5080653;28;19916;-56
2022/07/02 02:09:10;;;;;;;;;;;;;;;14.04;73.35;102094.50;5081649;28;19920;-55
2022/07/02 02:11:36;;;;;;;;;;;;;;;14.06;73.79;102099.66;5082203;28;20012;-55
2022/07/02 02:14:01;;;;;;;;;;;;;;;14.05;73.46;102095.31;5082649;28;19911;-55
2022/07/02 02:16:26;;;;;;;;;;;;;;;14.05;73.26;102092.66;5080782;28;19981;-55
2022/07/02 02:18:53;;;;;;;;;;;;;;;14.04;73.50;102089.16;5080802;28;20367;-56
2022/07/02 02:21:18;;;;;;;;;;;;;;;14.05;73.65;102092.66;5082657;28;20257;-55
2022/07/02 02:23:43;;;;;;;;;;;;;;;14.04;73.38;102091.81;5084164;28;20550;-52
2022/07/02 02:26:08;;;;;;;;;;;;;;;14.04;73.43;102090.97;5082506;28;19918;-54
2022/07/02 02:28:33;;;;;;;;;;;;;;;14.04;73.66;102096.31;5083411;28;19919;-53
2022/07/02 02:30:58;;;;;;;;;;;;;;;14.04;73.53;102097.16;5082197;28;20545;-53
2022/07/02 02:33:24;;;;;;;;;;;;;;;14.05;73.38;102101.50;5082427;28;19938;-55
2022/07/02 02:35:49;;;;;;;;;;;;;;;14.08;73.32;102100.34;5080918;28;20016;-53
2022/07/02 02:38:14;;;;;;;;;;;;;;;14.09;73.42;102102.00;5079530;28;20371;-56
2022/07/02 02:40:39;;;;;;;;;;;;;;;14.11;73.66;102102.69;5081836;28;19926;-56
2022/07/02 02:43:04;;;;;;;;;;;;;;;14.13;73.57;102098.00;5081535;28;19912;-55
2022/07/02 02:45:30;;;;;;;;;;;;;;;14.14;73.39;102100.53;5081607;28;20394;-56
2022/07/02 02:47:55;;;;;;;;;;;;;;;14.14;73.58;102097.84;5081488;28;20543;-54
2022/07/02 02:50:20;;;;;;;;;;;;;;;14.13;73.38;102103.34;5082757;28;19923;-55
2022/07/02 02:52:45;;;;;;;;;;;;;;;14.09;73.61;102100.19;5076916;28;19980;-55
2022/07/02 02:55:10;;;;;;;;;;;;;;;14.10;73.46;102104.53;5082078;28;20351;-56
2022/07/02 02:57:36;;;;;;;;;;;;;;;14.09;73.29;102113.53;5082389;28;19927;-54
2022/07/02 03:00:01;;;;;;;;;;;;;;;14.08;73.44;102119.03;5088070;28;19907;-55
2022/07/02 03:02:26;;;;;;;;;;;;;;;14.07;73.17;102109.34;5083379;28;19923;-55
2022/07/02 03:04:51;;;;;;;;;;;;;;;14.09;73.14;102107.34;5086496;28;19912;-54
2022/07/02 03:07:16;;;;;;;;;;;;;;;14.08;73.07;102111.03;5087322;28;19916;-53
2022/07/02 03:09:41;;;;;;;;;;;;;;;14.06;73.42;102113.88;5087063;28;19912;-56
2022/07/02 03:12:07;;;;;;;;;;;;;;;14.05;73.28;102119.38;5087093;28;19912;-53
2022/07/02 03:14:32;;;;;;;;;;;;;;;14.04;73.04;102118.53;5086313;28;19977;-56
2022/07/02 03:16:57;;;;;;;;;;;;;;;14.04;73.52;102115.03;5084300;28;19919;-52
2022/07/02 03:19:23;;;;;;;;;;;;;;;14.04;73.49;102115.03;5087427;28;19911;-52
2022/07/02 03:21:48;;;;;;;;;;;;;;;14.03;73.30;102118.69;5087663;28;19959;-56
2022/07/02 03:24:13;;;;;;;;;;;;;;;14.01;73.52;102116.19;5068780;28;19924;-56
2022/07/02 03:26:38;;;;;;;;;;;;;;;14.02;73.36;102123.19;5087371;28;20370;-55
2022/07/02 03:29:03;;;;;;;;;;;;;;;14.03;73.05;102126.72;5087887;28;20367;-52
2022/07/02 03:31:29;;;;;;;;;;;;;;;14.04;73.10;102133.72;5085398;28;19916;-56
2022/07/02 03:33:54;;;;;;;;;;;;;;;14.04;73.28;102129.22;5084202;28;19991;-54
2022/07/02 03:36:19;;;;;;;;;;;;;;;14.06;73.48;102137.06;5083769;28;20367;-52
2022/07/02 03:38:44;;;;;;;;;;;;;;;14.08;73.48;102135.06;5087069;28;19912;-53
2022/07/02 03:41:09;;;;;;;;;;;;;;;14.10;73.29;102135.75;5086243;28;19908;-54
2022/07/02 03:43:35;;;;;;;;;;;;;;;14.11;73.48;102148.09;5087833;28;19912;-55
2022/07/02 03:46:00;;;;;;;;;;;;;;;14.14;73.34;102142.44;5082539;28;19919;-54
2022/07/02 03:48:25;;;;;;;;;;;;;;;14.16;73.31;102143.09;5085485;28;19912;-53
2022/07/02 03:50:51;;;;;;;;;;;;;;;14.17;73.37;102134.94;5085601;28;19916;-52
2022/07/02 03:53:16;;;;;;;;;;;;;;;14.18;73.32;102138.47;5086810;28;20415;-55
2022/07/02 03:55:41;;;;;;;;;;;;;;;14.17;73.58;102139.47;5064055;28;20375;-55
2022/07/02 03:58:06;;;;;;;;;;;;;;;14.18;73.68;102133.13;5086538;28;19916;-53
2022/07/02 04:00:31;;;;;;;;;;;;;;;14.17;73.51;102132.28;5080340;28;19912;-55
2022/07/02 04:02:57;;;;;;;;;;;;;;;14.18;73.35;102133.94;5084474;28;19973;-54
2022/07/02 04:05:22;;;;;;;;;;;;;;;14.19;73.70;102140.13;5086424;28;19997;-55
2022/07/02 04:07:47;;;;;;;;;;;;;;;14.19;73.70;102143.63;5082999;28;19915;-55
2022/07/02 04:10:12;;;;;;;;;;;;;;;14.18;73.58;102144.63;5084775;28;20584;-56
2022/07/02 04:12:37;;;;;;;;;;;;;;;14.19;73.39;102143.63;5085051;28;19912;-54
2022/07/02 04:15:03;;;;;;;;;;;;;;;14.21;73.55;102151.50;5085147;28;20321;-54
2022/07/02 04:17:28;;;;;;;;;;;;;;;14.19;73.48;102140.13;5086238;28;19911;-56
2022/07/02 04:19:54;;;;;;;;;;;;;;;14.20;73.17;102144.47;5087037;28;19962;-55
2022/07/02 04:22:19;;;;;;;;;;;;;;;14.21;73.30;102141.63;5085656;28;19951;-52
2022/07/02 04:24:45;;;;;;;;;;;;;;;14.18;73.55;102149.16;5084301;28;19912;-55
2022/07/02 04:27:10;;;;;;;;;;;;;;;14.18;73.45;102149.16;5086239;28;20329;-55
2022/07/02 04:29:35;;;;;;;;;;;;;;;14.14;73.21;102145.09;5087661;28;19920;-56
2022/07/02 04:32:01;;;;;;;;;;;;;;;14.08;73.17;102143.91;5084893;28;20456;-55
2022/07/02 04:34:27;;;;;;;;;;;;;;;14.07;73.41;102149.41;5088831;28;19928;-55
2022/07/02 04:36:52;;;;;;;;;;;;;;;14.09;73.41;102150.09;5090543;28;19918;-55
2022/07/02 04:39:18;;;;;;;;;;;;;;;14.10;73.13;102149.09;5088880;28;19908;-53
2022/07/02 04:41:43;;;;;;;;;;;;;;;14.08;73.11;102154.59;5087590;28;20002;-54
2022/07/02 04:44:08;;;;;;;;;;;;;;;14.05;72.70;102146.06;5090563;28;20321;-56
2022/07/02 04:46:33;;;;;;;;;;;;;;;14.03;72.90;102148.91;5089796;28;19961;-55
2022/07/02 04:48:59;;;;;;;;;;;;;;;14.02;72.91;102149.06;5089873;28;19918;-53
2022/07/02 04:51:24;;;;;;;;;;;;;;;14.01;72.74;102144.72;5081857;28;19949;-55
2022/07/02 04:53:49;;;;;;;;;;;;;;;14.01;73.00;102142.06;5089931;28;20002;-54
2022/07/02 04:56:14;;;;;;;;;;;;;;;14.03;73.17;102145.41;5086869;28;19912;-52
2022/07/02 04:58:39;;;;;;;;;;;;;;;14.04;72.89;102145.25;5070124;28;19956;-55
2022/07/02 05:01:05;;;;;;;;;;;;;;;14.05;72.75;102149.59;5085385;28;20131;-54
2022/07/02 05:03:30;;;;;;;;;;;;;;;14.08;73.04;102146.59;5087337;28;20056;-55
2022/07/02 05:05:57;;;;;;;;;;;;;;;14.11;73.21;102150.78;5085644;28;20042;-56
2022/07/02 05:08:26;;;;;;;;;;;;;;;14.12;73.03;102145.25;5078585;28;20450;-55
2022/07/02 05:10:52;;;;;;;;;;;;;;;14.16;73.10;102145.78;5078494;28;20363;-55
2022/07/02 05:13:17;;;;;;;;;;;;;;;14.21;73.25;102146.16;5085506;28;19916;-55
2022/07/02 05:15:43;;;;;;;;;;;;;;;14.24;73.08;102149.31;5082764;28;19912;-54
2022/07/02 05:18:09;;;;;;;;;;;;;;;14.28;72.80;102149.84;5085572;28;20728;-52
2022/07/02 05:20:34;;;;;;;;;;;;;;;14.33;73.22;102147.50;5082307;28;19916;-56
2022/07/02 05:22:59;;;;;;;;;;;;;;;14.37;72.95;102150.69;5083843;28;20007;-55
2022/07/02 05:25:24;;;;;;;;;;;;;;;14.39;72.99;102148.69;5087264;28;20409;-56
2022/07/02 05:27:50;;;;;;;;;;;;;;;14.44;72.73;102157.06;5081451;28;20010;-53
2022/07/02 05:30:15;;;;;;;;;;;;;;;14.46;73.03;102142.56;5087624;28;20429;-54
2022/07/02 05:32:40;;;;;;;;;;;;;;;14.47;72.45;102143.41;5082895;28;20417;-55
2022/07/02 05:35:05;;;;;;;;;;;;;;;14.50;72.28;102154.59;5079829;28;19915;-54
2022/07/02 05:37:30;;;;;;;;;;;;;;;14.52;72.82;102151.75;5077153;28;19951;-54
2022/07/02 05:39:56;;;;;;;;;;;;;;;14.54;72.66;102158.63;5083120;28;19919;-55
2022/07/02 05:42:21;;;;;;;;;;;;;;;14.56;72.82;102156.63;5079027;28;19927;-55
2022/07/02 05:44:46;;;;;;;;;;;;;;;14.60;72.89;102164.31;5078935;28;20002;-54
2022/07/02 05:47:11;;;;;;;;;;;;;;;14.62;72.69;102168.47;5082631;28;19998;-53
2022/07/02 05:49:36;;;;;;;;;;;;;;;14.65;72.55;102162.81;5084732;28;19920;-54
2022/07/02 05:52:02;;;;;;;;;;;;;;;14.67;72.54;102167.97;5088440;28;20010;-54
2022/07/02 05:54:27;;;;;;;;;;;;;;;14.71;72.87;102164.81;5089130;28;19912;-53
2022/07/02 05:56:52;;;;;;;;;;;;;;;14.75;72.61;102168.03;5088416;28;19918;-54
2022/07/02 05:59:17;;;;;;;;;;;;;;;14.80;72.45;102168.34;5089697;28;20375;-53
2022/07/02 06:01:42;;;;;;;;;;;;;;;14.84;72.64;102169.69;5086967;28;20037;-54
2022/07/02 06:04:08;;;;;;;;;;;;;;;14.88;72.48;102174.53;5088247;28;19922;-54
2022/07/02 06:09:17;;;;;;;;;;;;;;;14.99;72.13;102173.34;5085305;28;20008;-54
2022/07/02 06:11:42;;;;;;;;;;;;;;;15.05;71.48;102171.88;5086977;28;19930;-55
2022/07/02 06:14:07;;;;;;;;;;;;;;;15.13;71.29;102167.34;5089259;28;19938;-55
2022/07/02 06:16:32;;;;;;;;;;;;;;;15.21;71.30;102168.34;5088903;28;20260;-53
2022/07/02 06:18:58;;;;;;;;;;;;;;;15.27;70.45;102165.00;5085788;28;19969;-54
2022/07/02 06:21:23;;;;;;;;;;;;;;;15.32;70.27;102171.50;5088199;28;19953;-54
2022/07/02 06:23:48;;;;;;;;;;;;;;;15.39;70.38;102171.69;5087378;28;20367;-53
2022/07/02 06:26:13;;;;;;;;;;;;;;;15.47;70.40;102171.66;5088947;28;20378;-54
2022/07/02 06:28:38;;;;;;;;;;;;;;;15.52;69.63;102174.66;5088701;28;19908;-54
2022/07/02 06:31:03;;;;;;;;;;;;;;;15.58;69.61;102178.50;5086533;28;20413;-55
2022/07/02 06:33:29;;;;;;;;;;;;;;;15.64;68.84;102184.06;5087354;28;19912;-52
2022/07/02 06:35:54;;;;;;;;;;;;;;;15.74;69.44;102190.06;5086445;28;19935;-56
2022/07/02 06:38:19;;;;;;;;;;;;;;;15.80;68.53;102192.03;5089061;28;19934;-55
2022/07/02 06:40:44;;;;;;;;;;;;;;;15.86;67.62;102189.66;5088227;28;19999;-54
2022/07/02 06:43:09;;;;;;;;;;;;;;;15.93;67.24;102194.19;5087592;28;19957;-55
2022/07/02 06:45:35;;;;;;;;;;;;;;;16.00;67.30;102195.16;5085313;28;20522;-53
2022/07/02 06:48:00;;;;;;;;;;;;;;;16.07;66.81;102189.94;5082065;28;19912;-54
2022/07/02 06:50:25;;;;;;;;;;;;;;;16.10;66.14;102189.59;5088376;28;19959;-54
2022/07/02 06:52:50;;;;;;;;;;;;;;;16.14;66.25;102190.91;5086325;28;20391;-53
2022/07/02 06:55:16;;;;;;;;;;;;;;;16.18;66.77;102189.53;5087689;28;19912;-55
2022/07/02 06:57:41;;;;;;;;;;;;;;;16.22;67.09;102188.22;5083729;28;20042;-55
2022/07/02 07:00:06;;;;;;;;;;;;;;;16.22;66.91;102180.16;5086598;28;20375;-56
2022/07/02 07:02:32;;;;;;;;;;;;;;;16.22;66.20;102176.66;5084206;28;20371;-55
2022/07/02 07:04:57;;;;;;;;;;;;;;;16.26;66.22;102180.66;5087399;28;19916;-53
2022/07/02 07:07:28;;;;;;;;;;;;;;;16.29;65.66;102177.63;5087838;28;19943;-55
2022/07/02 07:09:54;;;;;;;;;;;;;;;16.30;65.19;102184.66;5088198;28;19912;-55
2022/07/02 07:12:19;;;;;;;;;;;;;;;16.32;64.89;102177.25;5085291;28;19931;-55
2022/07/02 07:14:45;;;;;;;;;;;;;;;16.38;64.81;102180.06;5085596;28;19908;-53
2022/07/02 07:17:10;;;;;;;;;;;;;;;16.49;64.57;102180.69;5087633;28;19919;-55
2022/07/02 07:19:35;;;;;;;;;;;;;;;16.55;64.17;102175.47;5087635;28;20387;-52
2022/07/02 07:22:01;;;;;;;;;;;;;;;16.66;63.65;102190.34;5087466;28;19998;-53
2022/07/02 07:24:26;;;;;;;;;;;;;;;16.73;63.53;102199.34;5085798;28;19914;-55
2022/07/02 07:26:51;;;;;;;;;;;;;;;16.77;62.86;102189.06;5088189;28;19907;-56
2022/07/02 07:29:16;;;;;;;;;;;;;;;16.82;63.09;102184.88;5087091;28;19908;-55
2022/07/02 07:31:42;;;;;;;;;;;;;;;16.90;63.19;102186.66;5086052;28;19920;-55
2022/07/02 07:34:08;;;;;;;;;;;;;;;16.95;62.60;102182.41;5087315;28;19951;-53
2022/07/02 07:36:34;;;;;;;;;;;;;;;17.02;62.57;102180.66;5079183;28;19973;-53
2022/07/02 07:38:59;;;;;;;;;;;;;;;17.07;62.43;102182.00;5085181;28;19916;-52
2022/07/02 07:41:25;;;;;;;;;;;;;;;17.12;61.97;102180.44;5084806;28;20367;-54
2022/07/02 07:43:53;;;;;;;;;;;;;;;17.18;61.69;102178.88;5083077;28;20007;-53
2022/07/02 07:46:19;;;;;;;;;;;;;;;17.24;60.98;102183.50;5088049;28;19981;-54
2022/07/02 07:48:45;;;;;;;;;;;;;;;17.28;60.97;102187.50;5086627;28;19915;-55
2022/07/02 07:51:10;;;;;;;;;;;;;;;17.31;59.88;102187.13;5087358;28;19912;-55
2022/07/02 07:53:35;;;;;;;;;;;;;;;17.37;59.48;102183.75;5085762;28;19927;-54
2022/07/02 07:56:00;;;;;;;;;;;;;;;17.46;59.36;102184.50;5088393;28;20375;-55
2022/07/02 07:58:26;;;;;;;;;;;;;;;17.54;59.65;102185.22;5087047;28;19914;-54
2022/07/02 08:00:51;;;;;;;;;;;;;;;17.57;58.82;102176.81;5086648;28;19912;-54
2022/07/02 08:03:17;;;;;;;;;;;;;;;17.65;59.35;102176.75;5086850;28;20359;-53
2022/07/02 08:05:43;;;;;;;;;;;;;;;17.74;58.68;102182.06;5088540;28;20011;-55
2022/07/02 08:08:08;;;;;;;;;;;;;;;17.82;58.39;102177.41;5092211;28;20007;-56
2022/07/02 08:10:35;;;;;;;;;;;;;;;17.89;57.35;102181.00;5089961;28;19919;-56
2022/07/02 08:13:00;;;;;;;;;;;;;;;17.89;56.43;102170.25;5090799;28;19934;-56
2022/07/02 08:15:26;;;;;;;;;;;;;;;18.04;57.13;102177.50;5087101;28;19912;-55
2022/07/02 08:17:52;;;;;;;;;;;;;;;18.13;57.27;102179.88;5090761;28;19914;-52
2022/07/02 08:20:18;;;;;;;;;;;;;;;18.23;57.32;102174.22;5073205;28;20014;-55
2022/07/02 08:22:46;;;;;;;;;;;;;;;18.36;56.83;102178.91;5067973;28;19999;-56
2022/07/02 08:25:12;;;;;;;;;;;;;;;18.43;56.48;102179.81;5087586;28;19943;-55
2022/07/02 08:27:37;;;;;;;;;;;;;;;18.47;56.27;102163.09;5089247;28;19918;-55
2022/07/02 08:30:03;;;;;;;;;;;;;;;18.52;55.48;102162.56;5071583;28;19912;-56
2022/07/02 08:32:28;;;;;;;;;;;;;;;18.56;56.00;102166.53;5067508;28;19916;-56
2022/07/02 08:34:54;;;;;;;;;;;;;;;18.60;55.73;102161.59;5084586;28;19941;-54
2022/07/02 08:37:20;;;;;;;;;;;;;;;18.72;56.09;102160.09;5091074;28;19908;-53
2022/07/02 08:39:46;;;;;;;;;;;;;;;18.86;55.65;102164.59;5089266;28;20363;-55
2022/07/02 08:42:17;;;;;;;;;;;;;;;18.93;55.65;102154.72;5089897;28;19918;-56
2022/07/02 08:44:42;;;;;;;;;;;;;;;19.04;55.16;102156.03;5086996;28;20340;-53
2022/07/02 08:47:08;;;;;;;;;;;;;;;19.13;55.44;102155.72;5090038;28;19912;-54
2022/07/02 08:49:33;;;;;;;;;;;;;;;19.18;54.85;102163.22;5087320;28;19915;-55
2022/07/02 08:52:03;;;;;;;;;;;;;;;19.16;54.46;102151.81;5089213;28;20436;-53
2022/07/02 08:54:29;;;;;;;;;;;;;;;19.24;54.41;102151.66;5087381;28;20052;-53
2022/07/02 08:56:54;;;;;;;;;;;;;;;19.32;54.69;102146.09;5087133;28;20422;-53
2022/07/02 08:59:19;;;;;;;;;;;;;;;19.47;55.26;102148.72;5087774;28;19912;-56
2022/07/02 09:01:46;;;;;;;;;;;;;;;19.72;55.99;102143.72;5084415;28;19957;-56
2022/07/02 09:04:13;;;;;;;;;;;;;;;19.86;54.28;102150.00;5088991;28;19958;-56
2022/07/02 09:06:39;;;;;;;;;;;;;;;19.90;54.76;102144.00;5089996;28;20367;-55
2022/07/02 09:09:04;;;;;;;;;;;;;;;20.01;53.47;102150.69;5082446;28;19961;-55
2022/07/02 09:11:30;;;;;;;;;;;;;;;19.96;53.09;102132.44;5090131;28;20417;-53
2022/07/02 09:13:56;;;;;;;;;;;;;;;20.05;53.89;102146.56;5088836;28;20022;-56
2022/07/02 09:16:22;;;;;;;;;;;;;;;20.23;54.67;102137.91;5089212;28;19988;-54
2022/07/02 09:18:47;;;;;;;;;;;;;;;20.49;54.93;102129.06;5084238;28;19951;-54
2022/07/02 09:21:12;;;;;;;;;;;;;;;20.70;54.80;102137.84;5089702;28;19908;-53
2022/07/02 09:23:44;;;;;;;;;;;;;;;20.79;53.07;102129.53;5090062;28;19912;-54
2022/07/02 09:26:16;;;;;;;;;;;;;;;20.82;53.19;102132.66;5088692;28;20409;-53
2022/07/02 09:28:50;;;;;;;;;;;;;;;21.01;53.43;102126.44;5083890;28;19915;-55
2022/07/02 09:31:15;;;;;;;;;;;;;;;21.21;52.86;102123.72;5084612;28;19915;-54
2022/07/02 09:33:40;;;;;;;;;;;;;;;21.30;53.13;102117.06;5087242;28;19912;-54
2022/07/02 09:36:12;;;;;;;;;;;;;;;21.40;51.01;102135.59;5090408;28;19911;-56
2022/07/02 09:38:41;;;;;;;;;;;;;;;21.22;50.68;102122.69;5090265;28;19908;-54
2022/07/02 09:41:10;;;;;;;;;;;;;;;21.08;50.18;102122.88;5087320;28;19923;-54
2022/07/02 09:43:38;;;;;;;;;;;;;;;20.99;49.73;102114.16;5086951;28;19919;-54
2022/07/02 09:46:13;;;;;;;;;;;;;;;20.99;50.02;102111.47;5088456;28;20441;-55
2022/07/02 09:48:38;;;;;;;;;;;;;;;20.95;49.93;102099.44;5089619;28;20394;-54
2022/07/02 09:51:04;;;;;;;;;;;;;;;21.00;50.59;102105.03;5087077;28;19962;-53
2022/07/02 09:53:29;;;;;;;;;;;;;;;21.00;50.15;102108.56;5089798;28;19916;-53
2022/07/02 09:55:54;;;;;;;;;;;;;;;21.09;50.33;102098.34;5088322;28;19954;-55
2022/07/02 09:58:24;;;;;;;;;;;;;;;21.13;49.32;102096.94;5087291;28;19908;-52
2022/07/02 10:00:50;;;;;;;;;;;;;;;21.16;50.41;102106.47;5088457;28;19919;-52
2022/07/02 10:03:15;;;;;;;;;;;;;;;21.32;50.09;102090.66;5088780;28;20287;-56
2022/07/02 10:05:44;;;;;;;;;;;;;;;21.61;50.08;102093.91;5088837;28;19916;-55
2022/07/02 10:08:10;;;;;;;;;;;;;;;21.70;48.30;102102.66;5086346;28;19919;-56
2022/07/02 10:10:40;;;;;;;;;;;;;;;21.68;48.30;102100.13;5087602;28;20382;-55
2022/07/02 10:13:09;;;;;;;;;;;;;;;21.67;48.21;102092.22;5086510;28;20295;-55
2022/07/02 10:15:37;;;;;;;;;;;;;;;21.71;48.12;102090.78;5087500;28;20286;-54
2022/07/02 10:18:03;;;;;;;;;;;;;;;21.78;49.45;102088.88;5088916;28;19908;-53
2022/07/02 10:20:29;;;;;;;;;;;;;;;21.93;48.33;102090.25;5089088;28;19912;-55
2022/07/02 10:22:56;;;;;;;;;;;;;;;22.06;47.85;102075.88;5084786;28;19907;-55
2022/07/02 10:25:21;;;;;;;;;;;;;;;21.92;47.42;102075.06;5086744;28;19908;-54
2022/07/02 10:27:46;;;;;;;;;;;;;;;21.77;47.02;102076.41;5086481;28;19919;-53
2022/07/02 10:30:18;;;;;;;;;;;;;;;21.70;47.77;102081.03;5084445;28;19908;-54
2022/07/02 10:33:01;;;;;;;;;;;;;;;21.74;47.53;102064.16;5086394;28;20375;-56
2022/07/02 10:35:27;;;;;;;;;;;;;;;21.99;48.50;102066.94;5087345;28;19908;-54
2022/07/02 10:37:56;;;;;;;;;;;;;;;22.11;47.69;102067.94;5086870;28;19908;-56
2022/07/02 10:40:21;;;;;;;;;;;;;;;22.19;46.67;102064.97;5089365;28;19908;-53
2022/07/02 10:42:48;;;;;;;;;;;;;;;22.31;46.09;102070.53;5086048;28;20085;-54
2022/07/02 10:45:17;;;;;;;;;;;;;;;22.42;45.52;102069.00;5087649;28;19953;-53
2022/07/02 10:47:53;;;;;;;;;;;;;;;22.28;45.41;102068.25;5085539;28;19915;-53
2022/07/02 10:50:18;;;;;;;;;;;;;;;22.23;45.06;102062.66;5080692;28;19955;-56
2022/07/02 10:52:51;;;;;;;;;;;;;;;22.49;46.87;102053.50;5087297;28;20004;-53
2022/07/02 10:55:29;;;;;;;;;;;;;;;22.76;45.47;102071.22;5090015;28;20343;-54
2022/07/02 10:58:01;;;;;;;;;;;;;;;22.74;43.89;102070.59;5085490;28;19958;-55
2022/07/02 11:00:45;;;;;;;;;;;;;;;22.65;44.54;102058.41;5080741;28;19990;-57
2022/07/02 11:03:17;;;;;;;;;;;;;;;22.65;44.61;102063.81;5083714;28;19965;-56
2022/07/02 11:05:59;;;;;;;;;;;;;;;22.67;44.96;102066.31;5086869;28;19912;-56
2022/07/02 11:08:48;;;;;;;;;;;;;;;22.52;44.83;102067.44;5086731;28;19991;-56
2022/07/02 11:11:13;;;;;;;;;;;;;;;22.41;44.94;102062.75;5080463;28;19916;-55
2022/07/02 11:13:44;;;;;;;;;;;;;;;22.30;45.35;102055.34;5082484;28;20287;-55
2022/07/02 11:16:21;;;;;;;;;;;;;;;22.34;45.23;102064.69;5081876;28;19916;-54
2022/07/02 11:18:47;;;;;;;;;;;;;;;22.34;44.73;102053.84;5085164;28;20386;-57
2022/07/02 11:21:12;;;;;;;;;;;;;;;22.29;45.15;102056.38;5085516;28;19911;-55
2022/07/02 11:23:39;;;;;;;;;;;;;;;22.12;45.15;102058.78;5082736;28;20397;-54
2022/07/02 11:26:04;;;;;;;;;;;;;;;22.05;45.94;102059.88;5085234;28;19959;-55
2022/07/02 11:28:29;;;;;;;;;;;;;;;22.12;46.07;102055.22;5084888;28;20440;-54
2022/07/02 11:30:58;;;;;;;;;;;;;;;22.28;46.44;102052.03;5080549;28;19920;-55
2022/07/02 11:33:23;;;;;;;;;;;;;;;22.20;45.13;102044.16;5085134;28;20007;-55
2022/07/02 11:35:52;;;;;;;;;;;;;;;22.08;44.96;102037.78;5084565;28;20383;-57
2022/07/02 11:38:17;;;;;;;;;;;;;;;22.07;45.80;102039.66;5086275;28;19994;-56
2022/07/02 11:40:43;;;;;;;;;;;;;;;22.09;44.75;102031.31;5090591;28;20034;-56
2022/07/02 11:43:14;;;;;;;;;;;;;;;22.25;45.29;102030.78;5091191;28;20360;-56
2022/07/02 11:45:43;;;;;;;;;;;;;;;22.63;46.03;102027.19;5088609;28;19919;-58
2022/07/02 11:48:17;;;;;;;;;;;;;;;22.70;44.35;102027.94;5089627;28;19924;-56
2022/07/02 11:50:42;;;;;;;;;;;;;;;22.81;44.91;102022.66;5089092;28;19916;-56
2022/07/02 11:53:07;;;;;;;;;;;;;;;23.02;43.87;102023.28;5090282;28;19908;-57
2022/07/02 11:55:33;;;;;;;;;;;;;;;23.03;43.49;102023.06;5094449;28;19919;-56
2022/07/02 11:57:58;;;;;;;;;;;;;;;23.01;42.52;102018.91;5085158;28;19995;-56
2022/07/02 12:00:28;;;;;;;;;;;;;;;23.07;42.61;102013.44;5090973;28;19958;-56
2022/07/02 12:02:54;;;;;;;;;;;;;;;23.26;43.17;102019.69;5089973;28;19915;-56
2022/07/02 12:05:19;;;;;;;;;;;;;;;23.43;42.49;102022.63;5091631;28;20003;-56
2022/07/02 12:07:45;;;;;;;;;;;;;;;23.47;41.99;102023.84;5086860;28;19912;-56
2022/07/02 12:10:11;;;;;;;;;;;;;;;23.70;42.87;102012.28;5090228;28;19919;-56
2022/07/02 12:12:37;;;;;;;;;;;;;;;23.87;41.43;102012.47;5088988;28;19919;-56
2022/07/02 12:15:03;;;;;;;;;;;;;;;23.77;41.40;102016.59;5091468;28;19915;-56
2022/07/02 12:17:30;;;;;;;;;;;;;;;23.68;40.61;102017.94;5091113;28;19912;-55
2022/07/02 12:19:56;;;;;;;;;;;;;;;23.61;41.09;102014.50;5090319;28;19990;-56
2022/07/02 12:22:25;;;;;;;;;;;;;;;23.46;40.96;101995.06;5083131;28;20015;-56
2022/07/02 12:24:51;;;;;;;;;;;;;;;23.49;40.64;102000.84;5086406;28;20264;-56
2022/07/02 12:27:17;;;;;;;;;;;;;;;23.65;42.21;101993.16;5087298;28;20379;-55
2022/07/02 12:29:56;;;;;;;;;;;;;;;23.83;41.51;101981.44;5086365;28;19941;-54
2022/07/02 12:32:25;;;;;;;;;;;;;;;23.83;40.43;101978.72;5087148;28;19923;-52
2022/07/02 12:34:52;;;;;;;;;;;;;;;23.74;40.44;101986.38;5085839;28;19948;-53
2022/07/02 12:37:25;;;;;;;;;;;;;;;23.67;41.20;101978.31;5088915;28;19915;-57
2022/07/02 12:40:09;;;;;;;;;;;;;;;23.72;40.56;101980.34;5083822;28;20360;-52